KEBS/EBS METAR and TAF weather

Enter ICAO airport designator
Station Type Date Time Source
KEBS METAR 2020/04/05 12:15 UTC NOAA

KEBS 051215Z AUTO 10005KT 10SM CLR M03/M04 A3014 RMK AO2


Station Type Date Time Source
KEBS Decoded METAR 2020/04/05 12:15 UTC NOAA

Webster City, IA, United States (KEBS) 42-26N 093-52W
Apr 05, 2020 - 08:15 AM EDT / 2020.04.05 1215 UTC
Wind: from the E (100 degrees) at 6 MPH (5 KT):0
Visibility: 10 mile(s):0
Sky conditions: clear
Temperature: 26 F (-3 C)
Windchill: 19 F (-7 C):1
Dew Point: 24 F (-4 C)
Relative Humidity: 92%
Pressure (altimeter): 30.14 in. Hg (1020 hPa)
ob: KEBS 051215Z AUTO 10005KT 10SM CLR M03/M04 A3014 RMK AO2
cycle: 12

Station Type Date Time Source
KEBS TAF UTC NOAA

Error!

Example: see airport list